GLD166 SBSP-SBCT
Flight info
| Callsign | GLD166 |
|---|---|
| Flight time | 0h 41m |
| Altitude | 28000 |
| Route | UTKO1A SOVSI UZ85 RAXIT RAXI1A |
| Aircraft | A320/M-SDFGIRY/S |
Departure
| Time | 2026-05-04 22:52 |
|---|---|
| Airport | Congonhas–Deputado Freitas Nobre Airport (SBSP) |
Arrival
| Time | 2026-05-04 23:33 |
|---|---|
| Airport | Curitiba-Afonso Pena International Airport (SBCT) |
| Time | Latitude | Longitude | Altitude | Speed | Heading |
|---|---|---|---|---|---|
| 2026-05-04 22:14 | -23.62427 | -46.66027 | 2601 ft | 0 kts | 237° |
| 2026-05-04 22:40 | -23.62425 | -46.66023 | 2601 ft | 3 kts | 237° |
| 2026-05-04 22:40 | -23.62415 | -46.66007 | 2601 ft | 3 kts | 255° |
| 2026-05-04 22:41 | -23.62414 | -46.65987 | 2601 ft | 3 kts | 292° |
| 2026-05-04 22:41 | -23.62424 | -46.65971 | 2601 ft | 2 kts | 320° |
| 2026-05-04 22:41 | -23.62425 | -46.65970 | 2601 ft | 0 kts | 320° |
| 2026-05-04 22:45 | -23.62406 | -46.65985 | 2601 ft | 4 kts | 327° |
| 2026-05-04 22:45 | -23.62379 | -46.66004 | 2601 ft | 6 kts | 328° |
| 2026-05-04 22:46 | -23.62340 | -46.66027 | 2601 ft | 7 kts | 335° |
| 2026-05-04 22:46 | -23.62286 | -46.66041 | 2601 ft | 9 kts | 356° |
| 2026-05-04 22:46 | -23.62221 | -46.66057 | 2601 ft | 10 kts | 336° |
| 2026-05-04 22:46 | -23.62167 | -46.66093 | 2601 ft | 5 kts | 329° |
| 2026-05-04 22:47 | -23.62129 | -46.66118 | 2601 ft | 6 kts | 329° |
| 2026-05-04 22:47 | -23.62128 | -46.66118 | 2601 ft | 0 kts | 329° |
| 2026-05-04 22:48 | -23.62127 | -46.66119 | 2601 ft | 1 kts | 329° |
| 2026-05-04 22:48 | -23.62112 | -46.66128 | 2600 ft | 4 kts | 331° |
| 2026-05-04 22:49 | -23.62081 | -46.66139 | 2600 ft | 6 kts | 349° |
| 2026-05-04 22:49 | -23.62036 | -46.66127 | 2600 ft | 8 kts | 35° |
| 2026-05-04 22:49 | -23.62045 | -46.66090 | 2600 ft | 6 kts | 138° |
| 2026-05-04 22:49 | -23.62080 | -46.66051 | 2600 ft | 8 kts | 143° |
| 2026-05-04 22:50 | -23.62096 | -46.66038 | 2600 ft | 0 kts | 143° |
| 2026-05-04 22:51 | -23.62096 | -46.66037 | 2600 ft | 3 kts | 143° |
| 2026-05-04 22:51 | -23.62346 | -46.65859 | 2601 ft | 89 kts | 148° |
| 2026-05-04 22:52 | -23.63090 | -46.65343 | 2659 ft | 154 kts | 146° |
| 2026-05-04 22:52 | -23.64008 | -46.64699 | 3393 ft | 162 kts | 147° |
| 2026-05-04 22:52 | -23.65061 | -46.64170 | 4173 ft | 175 kts | 171° |
| 2026-05-04 22:52 | -23.66339 | -46.64199 | 4568 ft | 195 kts | 180° |
| 2026-05-04 22:53 | -23.67775 | -46.64305 | 4886 ft | 219 kts | 181° |
| 2026-05-04 22:53 | -23.69386 | -46.64428 | 5242 ft | 244 kts | 181° |
| 2026-05-04 22:53 | -23.71166 | -46.64563 | 5750 ft | 265 kts | 182° |
| 2026-05-04 22:53 | -23.73044 | -46.64709 | 6559 ft | 275 kts | 184° |
| 2026-05-04 22:54 | -23.74889 | -46.65236 | 7227 ft | 285 kts | 210° |
| 2026-05-04 22:54 | -23.76310 | -46.66738 | 7431 ft | 283 kts | 242° |
| 2026-05-04 22:54 | -23.76935 | -46.68757 | 7492 ft | 282 kts | 256° |
| 2026-05-04 22:54 | -23.77439 | -46.70824 | 7492 ft | 281 kts | 253° |
| 2026-05-04 22:55 | -23.78213 | -46.72745 | 7490 ft | 273 kts | 242° |
| 2026-05-04 22:55 | -23.79193 | -46.74513 | 7521 ft | 273 kts | 237° |
| 2026-05-04 22:55 | -23.80286 | -46.76239 | 8288 ft | 275 kts | 235° |
| 2026-05-04 22:55 | -23.81392 | -46.77931 | 9344 ft | 272 kts | 236° |
| 2026-05-04 22:56 | -23.82483 | -46.79616 | 10306 ft | 272 kts | 236° |
| 2026-05-04 22:56 | -23.83566 | -46.81318 | 11107 ft | 274 kts | 237° |
| 2026-05-04 22:56 | -23.84676 | -46.83097 | 11493 ft | 295 kts | 237° |
| 2026-05-04 22:56 | -23.85868 | -46.85036 | 11717 ft | 319 kts | 237° |
| 2026-05-04 22:57 | -23.87138 | -46.87127 | 11878 ft | 342 kts | 239° |
| 2026-05-04 22:57 | -23.88245 | -46.89502 | 12160 ft | 358 kts | 248° |
| 2026-05-04 22:57 | -23.89218 | -46.92033 | 12766 ft | 364 kts | 247° |
| 2026-05-04 22:57 | -23.90213 | -46.94592 | 13445 ft | 367 kts | 247° |
| 2026-05-04 22:58 | -23.91213 | -46.97150 | 14094 ft | 371 kts | 247° |
| 2026-05-04 22:58 | -23.92227 | -46.99745 | 14707 ft | 373 kts | 247° |
| 2026-05-04 22:58 | -23.93245 | -47.02363 | 15341 ft | 374 kts | 248° |
| 2026-05-04 22:58 | -23.94260 | -47.04987 | 15970 ft | 376 kts | 248° |
| 2026-05-04 22:59 | -23.95280 | -47.07627 | 16614 ft | 377 kts | 248° |
| 2026-05-04 22:59 | -23.96303 | -47.10274 | 17261 ft | 379 kts | 248° |
| 2026-05-04 22:59 | -23.97329 | -47.12931 | 17934 ft | 380 kts | 248° |
| 2026-05-04 22:59 | -23.98362 | -47.15602 | 18595 ft | 382 kts | 248° |
| 2026-05-04 23:00 | -23.99400 | -47.18282 | 19196 ft | 383 kts | 248° |
| 2026-05-04 23:00 | -24.00439 | -47.20966 | 19828 ft | 383 kts | 248° |
| 2026-05-04 23:00 | -24.01480 | -47.23658 | 20454 ft | 384 kts | 248° |
| 2026-05-04 23:00 | -24.02516 | -47.26344 | 21065 ft | 384 kts | 248° |
| 2026-05-04 23:01 | -24.03559 | -47.29046 | 21628 ft | 385 kts | 248° |
| 2026-05-04 23:01 | -24.04599 | -47.31741 | 22199 ft | 385 kts | 248° |
| 2026-05-04 23:01 | -24.05644 | -47.34451 | 22767 ft | 386 kts | 248° |
| 2026-05-04 23:01 | -24.06685 | -47.37154 | 23292 ft | 386 kts | 248° |
| 2026-05-04 23:02 | -24.07729 | -47.39870 | 23789 ft | 387 kts | 248° |
| 2026-05-04 23:02 | -24.08775 | -47.42589 | 24203 ft | 388 kts | 249° |
| 2026-05-04 23:02 | -24.10028 | -47.45213 | 24584 ft | 392 kts | 239° |
| 2026-05-04 23:02 | -24.11741 | -47.47557 | 24960 ft | 398 kts | 230° |
| 2026-05-04 23:03 | -24.13881 | -47.49527 | 25328 ft | 407 kts | 219° |
| 2026-05-04 23:03 | -24.16282 | -47.51203 | 25706 ft | 411 kts | 218° |
| 2026-05-04 23:03 | -24.18709 | -47.52883 | 26064 ft | 413 kts | 218° |
| 2026-05-04 23:03 | -24.21141 | -47.54571 | 26419 ft | 416 kts | 219° |
| 2026-05-04 23:04 | -24.23589 | -47.56277 | 26772 ft | 418 kts | 219° |
| 2026-05-04 23:04 | -24.26050 | -47.57991 | 27127 ft | 420 kts | 219° |
| 2026-05-04 23:04 | -24.28521 | -47.59709 | 27468 ft | 422 kts | 219° |
| 2026-05-04 23:04 | -24.31004 | -47.61438 | 27782 ft | 425 kts | 220° |
| 2026-05-04 23:05 | -24.33503 | -47.63180 | 28075 ft | 427 kts | 220° |
| 2026-05-04 23:05 | -24.36017 | -47.64932 | 28173 ft | 427 kts | 220° |
| 2026-05-04 23:05 | -24.41026 | -47.68433 | 28162 ft | 426 kts | 221° |
| 2026-05-04 23:06 | -24.43307 | -47.70404 | 28163 ft | 405 kts | 229° |
| 2026-05-04 23:06 | -24.45315 | -47.72452 | 28153 ft | 385 kts | 230° |
| 2026-05-04 23:06 | -24.47215 | -47.74372 | 28166 ft | 357 kts | 230° |
| 2026-05-04 23:06 | -24.49002 | -47.76173 | 28152 ft | 338 kts | 230° |
| 2026-05-04 23:07 | -24.50687 | -47.77875 | 28154 ft | 324 kts | 231° |
| 2026-05-04 23:07 | -24.52324 | -47.79546 | 28156 ft | 320 kts | 231° |
| 2026-05-04 23:07 | -24.55520 | -47.82826 | 28154 ft | 308 kts | 231° |
| 2026-05-04 23:08 | -24.58646 | -47.86030 | 28159 ft | 306 kts | 231° |
| 2026-05-04 23:08 | -24.61764 | -47.89224 | 28163 ft | 306 kts | 231° |
| 2026-05-04 23:09 | -24.64877 | -47.92410 | 28163 ft | 306 kts | 231° |
| 2026-05-04 23:09 | -24.67464 | -47.95062 | 28166 ft | 306 kts | 231° |
| 2026-05-04 23:10 | -24.70578 | -47.98253 | 28192 ft | 306 kts | 231° |
| 2026-05-04 23:10 | -24.73705 | -48.01451 | 28175 ft | 307 kts | 231° |
| 2026-05-04 23:11 | -24.76836 | -48.04651 | 28197 ft | 307 kts | 231° |
| 2026-05-04 23:11 | -24.79958 | -48.07856 | 28183 ft | 307 kts | 231° |
| 2026-05-04 23:12 | -24.83094 | -48.11081 | 27732 ft | 314 kts | 230° |
| 2026-05-04 23:12 | -24.84692 | -48.12730 | 27383 ft | 312 kts | 230° |
| 2026-05-04 23:12 | -24.86261 | -48.14336 | 27201 ft | 304 kts | 230° |
| 2026-05-04 23:13 | -24.87792 | -48.15902 | 26665 ft | 298 kts | 230° |
| 2026-05-04 23:13 | -24.89303 | -48.17451 | 25990 ft | 296 kts | 229° |
| 2026-05-04 23:13 | -24.90808 | -48.18999 | 25338 ft | 295 kts | 229° |
| 2026-05-04 23:13 | -24.92296 | -48.20532 | 24794 ft | 291 kts | 229° |
| 2026-05-04 23:14 | -24.93767 | -48.22048 | 24252 ft | 288 kts | 228° |
| 2026-05-04 23:14 | -24.95227 | -48.23554 | 23702 ft | 286 kts | 228° |
| 2026-05-04 23:14 | -24.96650 | -48.25099 | 23027 ft | 282 kts | 232° |
| 2026-05-04 23:14 | -24.97883 | -48.26767 | 22343 ft | 279 kts | 237° |
| 2026-05-04 23:15 | -24.98926 | -48.28554 | 21738 ft | 276 kts | 243° |
| 2026-05-04 23:15 | -24.99793 | -48.30423 | 21278 ft | 278 kts | 245° |
| 2026-05-04 23:15 | -25.00649 | -48.32343 | 20851 ft | 280 kts | 245° |
| 2026-05-04 23:15 | -25.01520 | -48.34280 | 20420 ft | 283 kts | 245° |
| 2026-05-04 23:16 | -25.02398 | -48.36229 | 19979 ft | 285 kts | 244° |
| 2026-05-04 23:16 | -25.03284 | -48.38197 | 19608 ft | 286 kts | 244° |
| 2026-05-04 23:16 | -25.04156 | -48.40136 | 19429 ft | 280 kts | 244° |
| 2026-05-04 23:16 | -25.05028 | -48.42079 | 19133 ft | 278 kts | 244° |
| 2026-05-04 23:17 | -25.05883 | -48.43990 | 18825 ft | 278 kts | 244° |
| 2026-05-04 23:17 | -25.06734 | -48.45898 | 18508 ft | 277 kts | 244° |
| 2026-05-04 23:17 | -25.07579 | -48.47792 | 17996 ft | 273 kts | 244° |
| 2026-05-04 23:17 | -25.08411 | -48.49655 | 17381 ft | 272 kts | 245° |
| 2026-05-04 23:18 | -25.09252 | -48.51533 | 16723 ft | 271 kts | 245° |
| 2026-05-04 23:18 | -25.10088 | -48.53405 | 16334 ft | 274 kts | 245° |
| 2026-05-04 23:18 | -25.10932 | -48.55298 | 15953 ft | 275 kts | 245° |
| 2026-05-04 23:18 | -25.11760 | -48.57155 | 15562 ft | 276 kts | 245° |
| 2026-05-04 23:19 | -25.12598 | -48.59029 | 15202 ft | 275 kts | 245° |
| 2026-05-04 23:19 | -25.13457 | -48.60946 | 14827 ft | 275 kts | 245° |
| 2026-05-04 23:19 | -25.14306 | -48.62838 | 14457 ft | 275 kts | 245° |
| 2026-05-04 23:19 | -25.15155 | -48.64737 | 14081 ft | 275 kts | 245° |
| 2026-05-04 23:20 | -25.15986 | -48.66602 | 13682 ft | 274 kts | 245° |
| 2026-05-04 23:20 | -25.16833 | -48.68513 | 13289 ft | 273 kts | 245° |
| 2026-05-04 23:20 | -25.17661 | -48.70393 | 12915 ft | 272 kts | 245° |
| 2026-05-04 23:20 | -25.18476 | -48.72244 | 12554 ft | 271 kts | 245° |
| 2026-05-04 23:21 | -25.19299 | -48.74108 | 12182 ft | 269 kts | 245° |
| 2026-05-04 23:21 | -25.20129 | -48.75989 | 11808 ft | 268 kts | 245° |
| 2026-05-04 23:21 | -25.20907 | -48.77823 | 11447 ft | 266 kts | 249° |
| 2026-05-04 23:21 | -25.21447 | -48.79791 | 11099 ft | 264 kts | 259° |
| 2026-05-04 23:22 | -25.21680 | -48.81798 | 10981 ft | 264 kts | 266° |
| 2026-05-04 23:22 | -25.21795 | -48.83829 | 10846 ft | 264 kts | 266° |
| 2026-05-04 23:22 | -25.21914 | -48.85825 | 10703 ft | 263 kts | 266° |
| 2026-05-04 23:22 | -25.22037 | -48.87866 | 10549 ft | 263 kts | 266° |
| 2026-05-04 23:23 | -25.22156 | -48.89883 | 10403 ft | 263 kts | 266° |
| 2026-05-04 23:23 | -25.22273 | -48.91867 | 10253 ft | 262 kts | 266° |
| 2026-05-04 23:23 | -25.22391 | -48.93898 | 10106 ft | 262 kts | 266° |
| 2026-05-04 23:23 | -25.22507 | -48.95900 | 9948 ft | 261 kts | 266° |
| 2026-05-04 23:24 | -25.22702 | -48.97889 | 9795 ft | 260 kts | 258° |
| 2026-05-04 23:24 | -25.23273 | -48.99769 | 9654 ft | 260 kts | 245° |
| 2026-05-04 23:24 | -25.24039 | -49.01581 | 9489 ft | 260 kts | 246° |
| 2026-05-04 23:24 | -25.24799 | -49.03391 | 9362 ft | 260 kts | 246° |
| 2026-05-04 23:25 | -25.25558 | -49.05204 | 9172 ft | 260 kts | 246° |
| 2026-05-04 23:25 | -25.26314 | -49.07010 | 8903 ft | 257 kts | 246° |
| 2026-05-04 23:25 | -25.27063 | -49.08803 | 8716 ft | 257 kts | 246° |
| 2026-05-04 23:25 | -25.27803 | -49.10579 | 8578 ft | 257 kts | 246° |
| 2026-05-04 23:26 | -25.28567 | -49.12411 | 8424 ft | 261 kts | 246° |
| 2026-05-04 23:26 | -25.29325 | -49.14222 | 8277 ft | 258 kts | 246° |
| 2026-05-04 23:26 | -25.30074 | -49.16017 | 8137 ft | 257 kts | 246° |
| 2026-05-04 23:26 | -25.30820 | -49.17811 | 7989 ft | 256 kts | 246° |
| 2026-05-04 23:27 | -25.31565 | -49.19605 | 7845 ft | 256 kts | 246° |
| 2026-05-04 23:27 | -25.32306 | -49.21389 | 7697 ft | 256 kts | 246° |
| 2026-05-04 23:27 | -25.33072 | -49.23167 | 7552 ft | 255 kts | 240° |
| 2026-05-04 23:27 | -25.34177 | -49.24705 | 7325 ft | 257 kts | 225° |
| 2026-05-04 23:28 | -25.35461 | -49.26067 | 7077 ft | 255 kts | 225° |
| 2026-05-04 23:28 | -25.36737 | -49.27421 | 6832 ft | 253 kts | 225° |
| 2026-05-04 23:28 | -25.37999 | -49.28760 | 6516 ft | 249 kts | 225° |
| 2026-05-04 23:28 | -25.39271 | -49.30006 | 6211 ft | 240 kts | 212° |
| 2026-05-04 23:29 | -25.40825 | -49.30398 | 5955 ft | 226 kts | 170° |
| 2026-05-04 23:29 | -25.42152 | -49.29619 | 5736 ft | 215 kts | 134° |
| 2026-05-04 23:29 | -25.43145 | -49.28464 | 5516 ft | 200 kts | 132° |
| 2026-05-04 23:29 | -25.44090 | -49.27382 | 5231 ft | 190 kts | 133° |
| 2026-05-04 23:30 | -25.44985 | -49.26375 | 4986 ft | 177 kts | 133° |
| 2026-05-04 23:30 | -25.45807 | -49.25456 | 4780 ft | 160 kts | 132° |
| 2026-05-04 23:30 | -25.46565 | -49.24608 | 4568 ft | 152 kts | 132° |
| 2026-05-04 23:30 | -25.47301 | -49.23784 | 4368 ft | 149 kts | 132° |
| 2026-05-04 23:31 | -25.48026 | -49.22973 | 4171 ft | 147 kts | 132° |
| 2026-05-04 23:31 | -25.48744 | -49.22170 | 3982 ft | 146 kts | 132° |
| 2026-05-04 23:31 | -25.49456 | -49.21374 | 3792 ft | 144 kts | 133° |
| 2026-05-04 23:31 | -25.50160 | -49.20587 | 3591 ft | 144 kts | 132° |
| 2026-05-04 23:32 | -25.50725 | -49.19953 | 3447 ft | 143 kts | 133° |
| 2026-05-04 23:32 | -25.51426 | -49.19172 | 3222 ft | 142 kts | 133° |
| 2026-05-04 23:32 | -25.52115 | -49.18411 | 3056 ft | 135 kts | 134° |
| 2026-05-04 23:32 | -25.52739 | -49.17689 | 2995 ft | 112 kts | 133° |
| 2026-05-04 23:33 | -25.53172 | -49.17209 | 2997 ft | 73 kts | 136° |
| 2026-05-04 23:33 | -25.53434 | -49.16919 | 2995 ft | 36 kts | 137° |
| 2026-05-04 23:33 | -25.53555 | -49.16800 | 2994 ft | 11 kts | 141° |
| 2026-05-04 23:33 | -25.53605 | -49.16803 | 2994 ft | 7 kts | 253° |
| 2026-05-04 23:34 | -25.53611 | -49.16863 | 2995 ft | 8 kts | 271° |
| 2026-05-04 23:34 | -25.53610 | -49.16910 | 2995 ft | 0 kts | 271° |
| 2026-05-04 23:34 | -25.53610 | -49.16928 | 2995 ft | 10 kts | 271° |
| 2026-05-04 23:35 | -25.53640 | -49.17025 | 2996 ft | 18 kts | 241° |
| 2026-05-04 23:35 | -25.53684 | -49.17077 | 2996 ft | 6 kts | 224° |
| 2026-05-04 23:35 | -25.53689 | -49.17083 | 2996 ft | 0 kts | 224° |